createdAt,value
2023-01-18T00:01:42.096Z,4.68
2023-01-18T00:06:48.260Z,4.56
2023-01-18T00:11:54.483Z,3.95
2023-01-18T00:17:00.535Z,3.95
2023-01-18T00:22:06.728Z,3.80
2023-01-18T00:27:12.882Z,3.22
2023-01-18T00:32:19.024Z,4.60
2023-01-18T00:37:25.087Z,4.16
2023-01-18T00:42:31.334Z,4.16
2023-01-18T00:47:37.485Z,2.91
2023-01-18T00:53:29.041Z,4.20
2023-01-18T00:58:35.101Z,3.10
2023-01-18T01:03:41.311Z,2.99
2023-01-18T01:08:47.471Z,2.98
2023-01-18T01:13:53.661Z,3.23
2023-01-18T01:18:59.777Z,2.82
2023-01-18T01:24:06.176Z,3.54
2023-01-18T01:29:12.485Z,3.00
2023-01-18T01:34:18.669Z,3.22
2023-01-18T01:39:24.741Z,3.07
2023-01-18T01:44:30.898Z,3.33
2023-01-18T01:49:37.007Z,3.30
2023-01-18T01:54:43.181Z,3.70
2023-01-18T01:59:49.344Z,3.22
2023-01-18T02:04:55.639Z,3.13
2023-01-18T02:10:01.739Z,3.91
2023-01-18T02:15:08.025Z,3.41
2023-01-18T02:20:14.221Z,3.19
2023-01-18T02:25:20.544Z,4.08
2023-01-18T02:30:26.675Z,3.78
2023-01-18T02:35:32.865Z,3.22
2023-01-18T02:40:39.037Z,3.49
2023-01-18T02:45:45.328Z,3.79
2023-01-18T02:50:51.365Z,3.68
2023-01-18T02:55:57.625Z,3.50
2023-01-18T03:01:03.802Z,3.49
2023-01-18T03:06:09.963Z,3.35
2023-01-18T03:11:16.038Z,3.72
2023-01-18T03:16:22.312Z,3.68
2023-01-18T03:21:28.495Z,4.05
2023-01-18T03:26:34.678Z,4.25
2023-01-18T03:31:40.796Z,3.93
2023-01-18T03:36:47.059Z,4.06
2023-01-18T03:41:53.257Z,4.90
2023-01-18T03:47:00.305Z,4.26
2023-01-18T03:52:06.384Z,4.26
2023-01-18T03:57:12.940Z,4.92
2023-01-18T04:02:19.068Z,4.19
2023-01-18T04:07:25.256Z,6.40
2023-01-18T04:12:31.294Z,5.11
2023-01-18T04:17:37.666Z,4.33
2023-01-18T04:22:44.558Z,4.75
2023-01-18T04:27:50.842Z,4.70
2023-01-18T04:32:57.384Z,5.13
2023-01-18T04:38:02.693Z,6.10
2023-01-18T04:43:08.810Z,5.00
2023-01-18T04:48:15.115Z,5.12
2023-01-18T04:53:21.214Z,4.83
2023-01-18T04:58:27.386Z,5.34
2023-01-18T05:03:33.563Z,5.06
2023-01-18T05:08:39.864Z,5.29
2023-01-18T05:13:46.663Z,7.34
2023-01-18T05:18:53.688Z,5.41
2023-01-18T05:24:01.217Z,6.25
2023-01-18T05:29:07.519Z,5.47
2023-01-18T05:34:13.630Z,5.23
2023-01-18T05:39:19.844Z,5.50
2023-01-18T05:44:25.911Z,6.17
2023-01-18T05:49:32.297Z,6.27
2023-01-18T05:54:38.398Z,6.22
2023-01-18T05:59:47.771Z,6.40
2023-01-18T06:04:53.887Z,6.17
2023-01-18T06:10:00.129Z,6.88
2023-01-18T06:15:09.207Z,6.01
2023-01-18T06:20:16.176Z,8.43
2023-01-18T06:25:22.272Z,6.97
2023-01-18T06:30:28.757Z,6.93
2023-01-18T06:35:34.867Z,6.30
2023-01-18T06:40:41.079Z,6.12
2023-01-18T06:45:47.184Z,6.96
2023-01-18T06:50:53.472Z,7.04
2023-01-18T06:55:59.562Z,7.18
2023-01-18T07:01:07.881Z,7.28
2023-01-18T07:06:14.646Z,6.39
2023-01-18T07:11:20.884Z,7.13
2023-01-18T07:16:27.030Z,7.50
2023-01-18T07:21:33.160Z,7.02
2023-01-18T07:26:39.269Z,8.10
2023-01-18T07:31:45.465Z,8.23
2023-01-18T07:36:51.506Z,7.54
2023-01-18T07:41:57.671Z,8.35
2023-01-18T07:47:03.756Z,8.35
2023-01-18T07:52:10.861Z,7.24
2023-01-18T07:57:16.943Z,7.90
2023-01-18T08:02:23.547Z,9.24
2023-01-18T08:07:29.644Z,8.12
2023-01-18T08:12:35.855Z,8.18
2023-01-18T08:17:41.931Z,7.83
2023-01-18T08:22:48.134Z,9.19
2023-01-18T08:27:54.227Z,9.21
2023-01-18T08:33:00.741Z,8.51
2023-01-18T08:38:06.406Z,10.21
2023-01-18T08:43:12.700Z,9.25
2023-01-18T08:48:19.126Z,10.10
2023-01-18T08:53:25.263Z,9.63
2023-01-18T08:58:31.355Z,9.12
2023-01-18T09:03:37.500Z,9.20
2023-01-18T09:08:43.633Z,9.36
2023-01-18T09:14:00.245Z,9.23
2023-01-18T09:18:56.434Z,8.47
2023-01-18T09:24:04.871Z,9.66
2023-01-18T09:29:10.928Z,8.41
2023-01-18T09:34:19.183Z,8.56
2023-01-18T09:39:22.744Z,8.80
2023-01-18T09:44:28.941Z,8.66
2023-01-18T09:49:34.991Z,9.67
2023-01-18T09:54:41.166Z,8.42
2023-01-18T09:59:47.562Z,9.50
2023-01-18T10:04:54.146Z,8.46
2023-01-18T10:10:00.271Z,9.17
2023-01-18T10:15:06.668Z,9.09
2023-01-18T10:20:13.597Z,9.00
2023-01-18T10:25:19.808Z,9.39
2023-01-18T10:30:25.912Z,8.96
2023-01-18T10:35:32.085Z,8.50
2023-01-18T10:40:38.218Z,7.79
2023-01-18T10:45:46.413Z,8.65
2023-01-18T10:50:53.453Z,8.05
2023-01-18T10:55:58.251Z,9.34
2023-01-18T11:01:04.528Z,8.48
2023-01-18T11:06:10.617Z,7.74
2023-01-18T11:11:16.732Z,9.43
2023-01-18T11:16:22.989Z,7.73
2023-01-18T11:21:29.064Z,7.29
2023-01-18T11:26:35.630Z,7.34
2023-01-18T11:31:42.001Z,8.83
2023-01-18T11:36:48.311Z,8.08
2023-01-18T11:41:54.793Z,8.71
2023-01-18T11:47:01.021Z,8.74
2023-01-18T11:52:07.186Z,7.79
2023-01-18T11:57:13.596Z,6.30
2023-01-18T12:02:19.696Z,7.21
2023-01-18T12:07:29.427Z,7.13
2023-01-18T12:12:35.881Z,7.54
2023-01-18T12:17:43.784Z,7.80
2023-01-18T12:22:47.773Z,7.11
2023-01-18T12:27:53.974Z,6.71
2023-01-18T12:33:00.809Z,6.23
2023-01-18T12:38:06.136Z,6.43
2023-01-18T12:43:12.240Z,6.09
2023-01-18T12:48:18.832Z,6.80
2023-01-18T12:53:24.923Z,6.18
2023-01-18T12:58:31.134Z,5.96
2023-01-18T13:03:37.232Z,6.18
2023-01-18T13:08:44.774Z,6.16
2023-01-18T13:13:49.130Z,5.16
2023-01-18T13:18:55.307Z,5.77
2023-01-18T13:24:01.722Z,5.54
2023-01-18T13:29:07.928Z,6.02
2023-01-18T13:34:14.114Z,6.16
2023-01-18T13:39:20.705Z,5.01
2023-01-18T13:44:27.160Z,5.04
2023-01-18T13:49:37.605Z,5.92
2023-01-18T13:54:39.010Z,5.03
2023-01-18T13:59:45.226Z,4.92
2023-01-18T14:04:51.290Z,6.03
2023-01-18T14:09:57.471Z,5.59
2023-01-18T14:15:03.543Z,5.04
2023-01-18T14:20:09.723Z,5.35
2023-01-18T14:25:15.808Z,4.81
2023-01-18T14:30:22.883Z,4.97
2023-01-18T14:35:29.028Z,4.79
2023-01-18T14:40:35.201Z,5.56
2023-01-18T14:45:41.272Z,5.38
2023-01-18T14:50:47.426Z,5.26
2023-01-18T14:55:53.474Z,4.69
2023-01-18T15:00:59.799Z,5.34
2023-01-18T15:06:05.818Z,4.53
2023-01-18T15:11:11.931Z,4.78
2023-01-18T15:16:18.105Z,4.70
2023-01-18T15:21:24.349Z,5.06
2023-01-18T15:26:31.413Z,6.36
2023-01-18T15:31:37.579Z,5.34
2023-01-18T15:36:43.671Z,5.40
2023-01-18T15:41:52.792Z,5.28
2023-01-18T15:46:58.972Z,6.30
2023-01-18T15:52:05.164Z,5.09
2023-01-18T15:57:13.551Z,5.62
2023-01-18T16:02:20.241Z,7.41
2023-01-18T16:07:26.268Z,5.47
2023-01-18T16:12:32.552Z,6.75
2023-01-18T16:17:38.694Z,6.75
2023-01-18T16:22:44.920Z,6.08
2023-01-18T16:27:51.330Z,6.33
2023-01-18T16:32:58.198Z,6.84
2023-01-18T16:38:04.190Z,7.50
2023-01-18T16:48:17.833Z,7.72
2023-01-18T16:53:25.203Z,6.56
2023-01-18T16:58:31.459Z,7.24
2023-01-18T17:03:38.059Z,9.17
2023-01-18T17:08:45.974Z,7.17
2023-01-18T17:13:52.103Z,6.93
2023-01-18T17:18:58.272Z,7.26
2023-01-18T17:24:04.585Z,7.26
2023-01-18T17:29:10.659Z,8.94
2023-01-18T17:34:17.041Z,9.14
2023-01-18T17:39:37.052Z,9.86
2023-01-18T17:44:36.947Z,8.33
2023-01-18T17:49:38.411Z,7.67
2023-01-18T17:54:44.868Z,8.57
2023-01-18T17:59:51.046Z,7.32
2023-01-18T18:04:57.468Z,7.95
2023-01-18T18:10:03.567Z,7.55
2023-01-18T18:15:09.919Z,9.70
2023-01-18T18:20:16.131Z,7.21
2023-01-18T18:25:22.717Z,7.41
2023-01-18T18:30:28.912Z,8.31
2023-01-18T18:35:35.230Z,7.49
2023-01-18T18:40:41.520Z,6.79
2023-01-18T18:45:47.918Z,8.29
2023-01-18T18:51:11.727Z,7.65
2023-01-18T18:55:58.142Z,7.36
2023-01-18T19:01:04.694Z,6.54
2023-01-18T19:06:10.948Z,6.78
2023-01-18T19:11:17.030Z,6.25
2023-01-18T19:16:23.277Z,6.45
2023-01-18T19:21:29.302Z,6.38
2023-01-18T19:26:35.497Z,7.62
2023-01-18T19:31:41.604Z,6.01
2023-01-18T19:36:47.791Z,6.08
2023-01-18T19:41:53.936Z,7.31
2023-01-18T19:47:00.335Z,6.90
2023-01-18T19:52:06.306Z,7.09
2023-01-18T19:57:13.287Z,5.79
2023-01-18T20:02:19.579Z,5.96
2023-01-18T20:07:25.655Z,7.42
2023-01-18T20:12:31.828Z,6.29
2023-01-18T20:17:38.048Z,6.39
2023-01-18T20:22:44.189Z,5.91
2023-01-18T20:27:50.407Z,6.58
2023-01-18T20:32:56.673Z,5.89
2023-01-18T20:38:02.879Z,5.22
2023-01-18T20:43:09.037Z,6.32
2023-01-18T20:48:15.229Z,4.86
2023-01-18T20:53:21.352Z,5.93
2023-01-18T20:58:27.623Z,6.26
2023-01-18T21:03:33.784Z,6.13
2023-01-18T21:08:40.009Z,7.34
2023-01-18T21:13:46.239Z,6.68
2023-01-18T21:18:52.526Z,7.15
2023-01-18T21:23:58.719Z,7.41
2023-01-18T21:29:04.842Z,5.35
2023-01-18T21:34:10.947Z,7.15
2023-01-18T21:39:17.165Z,7.25
2023-01-18T21:44:23.344Z,8.11
2023-01-18T21:49:42.954Z,7.37
2023-01-18T21:54:35.214Z,6.50
2023-01-18T21:59:41.560Z,6.53
2023-01-18T22:04:47.772Z,6.60
2023-01-18T22:10:03.902Z,7.40
2023-01-18T22:14:59.577Z,6.92
2023-01-18T22:20:05.810Z,7.83
2023-01-18T22:25:11.922Z,7.19
2023-01-18T22:30:18.201Z,7.55
2023-01-18T22:35:24.269Z,5.98
2023-01-18T22:40:30.482Z,8.11
2023-01-18T22:45:36.673Z,7.01
2023-01-18T22:50:42.942Z,6.74
2023-01-18T22:55:49.139Z,7.90
2023-01-18T23:00:55.330Z,6.51
2023-01-18T23:06:01.478Z,7.48
2023-01-18T23:11:08.402Z,7.10
2023-01-18T23:16:14.522Z,8.57
2023-01-18T23:21:20.714Z,7.65
2023-01-18T23:26:26.837Z,6.94
2023-01-18T23:31:33.075Z,8.06
2023-01-18T23:36:39.207Z,10.67
2023-01-18T23:41:45.346Z,9.46
2023-01-18T23:46:51.446Z,7.25
2023-01-18T23:51:57.641Z,7.85
2023-01-18T23:57:03.819Z,8.04
